Time;durP1;ratioP1;P1;durP2;ratioP2;P2;SDS_P1;SDS_P2;PMS_P1;PMS_P2;Temp;Humidity;BMP_temperature;BMP_pressure;BME280_temperature;BME280_humidity;BME280_pressure;Samples;Min_cycle;Max_cycle;Signal;HPM_P1;HPM_P2
2024/01/25 00:00:44;;;;;;;9.60;4.60;;;;;;;4.67;66.36;99526.09;105169;1259;64935;-61
2024/01/25 00:03:11;;;;;;;10.20;3.90;;;;;;;4.66;66.33;99532.95;105818;1259;61410;-61
2024/01/25 00:05:39;;;;;;;8.90;3.70;;;;;;;4.68;66.16;99532.80;104871;1259;63753;-61
2024/01/25 00:08:07;;;;;;;7.20;2.80;;;;;;;4.73;66.05;99533.71;106809;1258;60549;-62
2024/01/25 00:10:34;;;;;;;7.30;2.80;;;;;;;4.78;66.01;99529.17;104887;1260;60512;-61
2024/01/25 00:13:02;;;;;;;8.00;3.80;;;;;;;4.83;66.05;99522.73;106074;1262;64996;-60
2024/01/25 00:15:30;;;;;;;7.90;2.80;;;;;;;4.87;66.06;99520.56;104935;1259;61440;-60
2024/01/25 00:17:58;;;;;;;8.80;3.70;;;;;;;4.85;66.10;99518.09;104768;1259;64356;-63
2024/01/25 00:20:26;;;;;;;6.70;2.70;;;;;;;4.80;66.10;99513.05;104860;1259;60464;-60
2024/01/25 00:22:54;;;;;;;7.20;2.70;;;;;;;4.77;66.05;99505.77;105436;1259;60477;-58
2024/01/25 00:25:21;;;;;;;12.30;5.30;;;;;;;4.73;66.14;99503.77;104871;1264;64951;-60
2024/01/25 00:27:49;;;;;;;8.90;3.30;;;;;;;4.74;66.17;99503.35;104890;1265;61307;-60
2024/01/25 00:30:17;;;;;;;8.00;3.80;;;;;;;4.81;66.03;99503.25;104881;1261;63704;-67
2024/01/25 00:32:44;;;;;;;7.60;3.20;;;;;;;4.87;65.82;99497.46;104991;1264;60662;-66
2024/01/25 00:35:13;;;;;;;12.70;4.80;;;;;;;4.90;65.83;99490.97;104897;1261;60467;-65
2024/01/25 00:37:42;;;;;;;11.20;3.50;;;;;;;4.97;65.84;99486.77;104998;1263;64923;-64
2024/01/25 00:40:13;;;;;;;9.90;4.60;;;;;;;5.05;65.78;99485.70;105908;1263;60526;-59
2024/01/25 00:42:42;;;;;;;9.30;3.40;;;;;;;5.07;65.81;99482.11;105066;1265;62681;-60
2024/01/25 00:45:11;;;;;;;6.80;2.90;;;;;;;5.07;65.68;99478.80;105198;1262;61294;-58
2024/01/25 00:47:39;;;;;;;7.50;3.20;;;;;;;4.99;65.68;99472.55;105017;1263;60574;-58
2024/01/25 00:50:07;;;;;;;7.90;2.90;;;;;;;4.86;65.96;99465.86;106903;1258;64838;-59
2024/01/25 00:52:35;;;;;;;9.00;2.80;;;;;;;4.88;65.97;99466.77;105082;1259;61362;-59
2024/01/25 00:55:03;;;;;;;8.70;2.90;;;;;;;4.96;65.89;99465.86;105241;1260;63711;-58
2024/01/25 00:57:32;;;;;;;6.50;3.30;;;;;;;5.01;65.80;99461.16;105193;1259;60499;-59
2024/01/25 01:00:00;;;;;;;12.00;5.70;;;;;;;5.06;65.80;99465.02;106246;1260;59298;-59
2024/01/25 01:02:30;;;;;;;8.70;3.30;;;;;;;5.07;65.80;99461.80;105559;1259;63770;-61
2024/01/25 01:04:58;;;;;;;6.70;2.80;;;;;;;5.06;65.90;99460.09;106191;1265;61348;-60
2024/01/25 01:07:27;;;;;;;7.50;3.00;;;;;;;5.06;66.13;99454.73;105403;1259;63792;-58
2024/01/25 01:09:55;;;;;;;7.80;3.00;;;;;;;5.05;66.18;99452.02;105535;1259;60516;-63
2024/01/25 01:12:22;;;;;;;8.70;3.80;;;;;;;5.04;66.26;99447.86;104751;1265;60365;-59
2024/01/25 01:14:50;;;;;;;9.00;4.20;;;;;;;5.05;66.25;99444.91;104819;1262;64952;-60
2024/01/25 01:17:18;;;;;;;8.00;3.10;;;;;;;5.03;66.25;99442.06;104768;1259;61572;-61
2024/01/25 01:19:46;;;;;;;8.40;2.60;;;;;;;5.02;66.16;99435.69;105829;1259;64191;-60
2024/01/25 01:22:14;;;;;;;6.30;2.60;;;;;;;5.08;66.00;99433.06;104876;1260;60476;-59
2024/01/25 01:24:41;;;;;;;11.40;4.50;;;;;;;5.13;65.89;99430.25;105251;1261;60558;-60
2024/01/25 01:27:09;;;;;;;8.20;4.20;;;;;;;5.16;65.90;99429.48;104963;1263;65008;-59
2024/01/25 01:29:37;;;;;;;5.60;2.60;;;;;;;5.29;65.61;99428.36;105227;1260;61390;-59
2024/01/25 01:32:05;;;;;;;7.50;2.90;;;;;;;5.33;65.57;99425.98;104891;1259;62507;-62
2024/01/25 01:34:32;;;;;;;9.10;3.10;;;;;;;5.35;65.67;99424.63;107694;1259;59372;-60
2024/01/25 01:37:00;;;;;;;8.70;3.00;;;;;;;5.35;65.63;99423.20;104929;1264;60559;-63
2024/01/25 01:39:28;;;;;;;7.80;3.50;;;;;;;5.32;65.62;99414.59;105351;1258;67424;-60
2024/01/25 01:41:56;;;;;;;7.60;3.40;;;;;;;5.28;65.69;99408.25;104840;1257;61862;-66
2024/01/25 01:44:24;;;;;;;10.40;3.60;;;;;;;5.28;65.66;99404.48;105646;1259;63932;-59
2024/01/25 01:46:51;;;;;;;6.30;2.40;;;;;;;5.31;65.48;99402.48;104808;1260;60563;-63
2024/01/25 01:49:19;;;;;;;7.40;3.20;;;;;;;5.35;65.45;99394.89;104850;1263;60483;-60
2024/01/25 01:51:47;;;;;;;7.70;2.60;;;;;;;5.38;65.36;99394.31;104917;1264;64963;-60
2024/01/25 01:54:16;;;;;;;8.20;3.30;;;;;;;5.40;65.43;99394.84;104927;1263;61365;-59
2024/01/25 01:56:44;;;;;;;12.30;7.70;;;;;;;5.39;65.60;99389.69;104740;1265;64347;-62
2024/01/25 01:59:12;;;;;;;8.60;3.20;;;;;;;5.38;65.65;99385.58;104737;1259;60520;-61
2024/01/25 02:01:40;;;;;;;8.30;3.30;;;;;;;5.34;65.66;99385.88;104775;1260;60458;-59
2024/01/25 02:04:07;;;;;;;7.70;3.30;;;;;;;5.20;65.89;99381.36;105348;1263;64929;-60
2024/01/25 02:06:35;;;;;;;7.20;2.90;;;;;;;5.19;65.89;99375.36;104838;1263;62015;-61
2024/01/25 02:09:03;;;;;;;6.20;2.20;;;;;;;5.24;65.78;99373.96;104846;1263;65682;-63
2024/01/25 02:11:30;;;;;;;8.50;3.20;;;;;;;5.31;65.63;99379.54;104819;1266;60516;-65
2024/01/25 02:13:58;;;;;;;6.70;2.20;;;;;;;5.34;65.62;99373.70;104785;1259;60587;-62
2024/01/25 02:16:26;;;;;;;7.40;2.80;;;;;;;5.37;65.64;99372.27;104939;1262;65109;-62
2024/01/25 02:18:56;;;;;;;7.50;2.70;;;;;;;5.38;65.82;99371.71;105535;1260;61364;-63
2024/01/25 02:21:25;;;;;;;8.40;3.20;;;;;;;5.36;65.97;99371.69;105632;1260;63755;-61
2024/01/25 02:23:52;;;;;;;8.00;2.00;;;;;;;5.36;66.06;99367.83;104863;1260;60487;-63
2024/01/25 02:26:21;;;;;;;5.40;2.40;;;;;;;5.37;66.08;99368.48;104904;1259;60539;-62
2024/01/25 02:28:48;;;;;;;8.80;2.80;;;;;;;5.36;66.10;99364.05;104771;1263;64956;-58
2024/01/25 02:31:16;;;;;;;7.10;2.60;;;;;;;5.34;66.13;99367.42;104805;1263;60546;-63
2024/01/25 02:33:44;;;;;;;6.70;3.00;;;;;;;5.39;66.01;99358.05;104881;1260;64212;-60
2024/01/25 02:36:11;;;;;;;6.80;2.70;;;;;;;5.39;66.02;99354.78;104845;1259;60493;-60
2024/01/25 02:38:39;;;;;;;6.20;3.20;;;;;;;5.38;66.14;99355.30;104955;1264;60474;-59
2024/01/25 02:41:07;;;;;;;9.30;6.10;;;;;;;5.47;66.11;99354.86;104739;1265;63662;-62
2024/01/25 02:43:34;;;;;;;9.60;2.50;;;;;;;5.55;66.11;99356.70;104742;1263;61396;-62
2024/01/25 02:46:02;;;;;;;6.30;2.40;;;;;;;5.68;65.87;99353.45;104980;1262;62780;-61
2024/01/25 02:48:31;;;;;;;7.40;2.70;;;;;;;5.67;65.73;99354.55;104894;1259;60601;-60
2024/01/25 02:50:59;;;;;;;10.50;4.30;;;;;;;5.66;65.81;99350.84;105388;1259;60420;-63
2024/01/25 02:53:26;;;;;;;6.40;2.70;;;;;;;5.64;65.86;99347.20;104858;1262;64997;-61
2024/01/25 02:55:54;;;;;;;6.80;3.20;;;;;;;5.59;65.90;99341.64;104739;1264;61369;-61
2024/01/25 02:58:22;;;;;;;6.60;2.50;;;;;;;5.60;65.81;99339.45;104787;1263;63736;-59
2024/01/25 03:00:49;;;;;;;5.60;1.80;;;;;;;5.53;65.82;99332.70;104622;1260;60425;-57
2024/01/25 03:03:18;;;;;;;8.20;2.50;;;;;;;5.59;65.58;99334.45;105651;1260;60517;-60
2024/01/25 03:05:45;;;;;;;7.30;2.50;;;;;;;5.68;65.49;99335.38;107275;1262;63713;-59
2024/01/25 03:08:13;;;;;;;6.60;1.90;;;;;;;5.72;65.49;99337.11;104710;1265;61542;-57
2024/01/25 03:10:41;;;;;;;6.60;2.40;;;;;;;5.76;65.43;99335.57;104802;1260;63844;-58
2024/01/25 03:13:08;;;;;;;7.10;2.40;;;;;;;5.81;65.45;99329.83;104794;1262;60660;-58
2024/01/25 03:15:36;;;;;;;6.50;2.80;;;;;;;5.84;65.44;99329.29;104930;1264;60512;-58
2024/01/25 03:18:04;;;;;;;5.70;2.20;;;;;;;5.80;65.53;99328.17;104773;1263;65570;-62
2024/01/25 03:20:32;;;;;;;5.40;2.10;;;;;;;5.77;65.57;99325.40;105397;1264;60542;-61
2024/01/25 03:22:59;;;;;;;8.70;3.90;;;;;;;5.76;65.77;99322.71;104843;1263;64227;-60
2024/01/25 03:25:27;;;;;;;11.30;2.90;;;;;;;5.73;65.72;99320.70;104981;1259;60534;-63
2024/01/25 03:27:55;;;;;;;5.80;2.10;;;;;;;5.73;65.59;99317.77;105487;1262;59279;-60
2024/01/25 03:30:23;;;;;;;8.90;2.20;;;;;;;5.76;65.51;99319.08;105617;1262;65473;-58
2024/01/25 03:32:51;;;;;;;10.10;5.60;;;;;;;5.79;65.49;99321.48;104886;1263;61404;-59
2024/01/25 03:35:19;;;;;;;6.10;2.10;;;;;;;5.82;65.42;99318.79;104744;1259;63849;-61
2024/01/25 03:37:46;;;;;;;7.10;3.40;;;;;;;5.84;65.56;99321.79;105651;1264;61680;-59
2024/01/25 03:40:14;;;;;;;10.30;2.40;;;;;;;5.81;65.68;99318.74;104856;1259;60574;-62
2024/01/25 03:42:42;;;;;;;6.80;2.10;;;;;;;5.76;65.82;99318.04;104862;1260;63676;-58
2024/01/25 03:45:20;;;;;;;7.60;3.40;;;;;;;5.74;65.95;99318.53;104584;1271;61695;-59
2024/01/25 03:47:48;;;;;;;5.00;1.70;;;;;;;5.77;65.84;99315.55;104705;1263;63806;-58
2024/01/25 03:50:16;;;;;;;7.30;2.00;;;;;;;5.87;65.67;99316.31;108776;1260;58582;-59
2024/01/25 03:52:44;;;;;;;8.10;3.80;;;;;;;5.94;65.61;99316.11;108753;1263;58511;-58
2024/01/25 03:55:12;;;;;;;6.30;1.90;;;;;;;6.01;65.51;99318.27;106698;1259;64924;-59
2024/01/25 03:57:40;;;;;;;8.70;4.80;;;;;;;6.08;65.56;99321.16;104684;1263;70617;-58
2024/01/25 04:00:09;;;;;;;6.70;2.00;;;;;;;6.12;65.58;99318.58;104966;1264;64639;-59
2024/01/25 04:02:37;;;;;;;4.60;2.00;;;;;;;6.10;65.52;99318.04;105943;1264;60365;-62
2024/01/25 04:05:05;;;;;;;7.30;4.80;;;;;;;6.08;65.50;99315.25;106284;1260;60480;-61
2024/01/25 04:07:32;;;;;;;12.10;4.30;;;;;;;6.05;65.54;99309.08;105747;1263;229120;-56
2024/01/25 04:11:23;;;;;;;6.20;1.90;;;;;;;5.53;67.10;99306.93;102227;1292;600629;-60
2024/01/25 04:13:54;;;;;;;4.70;1.40;;;;;;;5.85;66.07;99307.64;104038;1271;61096;-60
2024/01/25 04:16:21;;;;;;;6.30;2.50;;;;;;;5.95;65.75;99308.77;104224;1270;59271;-61
2024/01/25 04:18:49;;;;;;;8.10;2.20;;;;;;;5.99;65.80;99305.70;104361;1272;62061;-58
2024/01/25 04:21:17;;;;;;;34.80;24.80;;;;;;;6.02;65.71;99305.96;104309;1271;60315;-59
2024/01/25 04:23:45;;;;;;;16.30;8.50;;;;;;;6.07;65.66;99308.52;104260;1272;63959;-59
2024/01/25 04:26:12;;;;;;;11.60;5.70;;;;;;;6.08;65.76;99312.44;104223;1267;236475;-57
2024/01/25 04:28:40;;;;;;;18.30;10.20;;;;;;;6.08;65.78;99306.52;104463;1264;58988;-57
2024/01/25 04:31:07;;;;;;;8.70;3.30;;;;;;;6.02;65.93;99301.30;104445;1269;72868;-59
2024/01/25 04:33:35;;;;;;;10.10;3.10;;;;;;;5.99;66.02;99301.69;104392;1270;61473;-57
2024/01/25 04:36:04;;;;;;;8.80;4.30;;;;;;;6.00;65.94;99297.11;104904;1270;63738;-59
2024/01/25 04:38:32;;;;;;;16.30;7.80;;;;;;;6.01;65.92;99296.30;105075;1267;59689;-62
2024/01/25 04:41:00;;;;;;;26.20;9.90;;;;;;;6.04;65.87;99299.06;104938;1266;59854;-58
2024/01/25 04:43:28;;;;;;;12.20;5.30;;;;;;;6.13;65.66;99298.51;104343;1270;64171;-59
2024/01/25 04:45:55;;;;;;;11.90;3.90;;;;;;;6.17;65.52;99296.83;104530;1269;61446;-59
2024/01/25 04:48:23;;;;;;;12.50;7.00;;;;;;;6.18;65.64;99295.48;104317;1266;63682;-59
2024/01/25 04:50:51;;;;;;;11.60;5.60;;;;;;;6.25;65.62;99294.05;104415;1272;59701;-58
2024/01/25 04:53:18;;;;;;;7.80;2.90;;;;;;;6.26;65.71;99291.00;108372;1271;58045;-60
2024/01/25 04:55:46;;;;;;;11.20;7.10;;;;;;;6.29;65.80;99294.42;108346;1266;62873;-59
2024/01/25 04:58:14;;;;;;;5.10;2.20;;;;;;;6.29;65.78;99294.29;108479;1264;61889;-61
2024/01/25 05:00:41;;;;;;;6.90;2.00;;;;;;;6.28;65.77;99291.91;108485;1264;62566;-61
2024/01/25 05:03:09;;;;;;;5.50;1.90;;;;;;;6.27;65.67;99294.76;108342;1264;57733;-61
2024/01/25 05:05:37;;;;;;;4.90;1.90;;;;;;;6.27;65.71;99291.48;104799;1263;59754;-59
2024/01/25 05:08:05;;;;;;;8.00;4.80;;;;;;;6.28;65.66;99292.10;105011;1269;64138;-66
2024/01/25 05:10:33;;;;;;;6.40;2.10;;;;;;;6.31;65.53;99287.45;105713;1266;61508;-59
2024/01/25 05:13:00;;;;;;;4.60;1.70;;;;;;;6.38;65.32;99282.60;104580;1263;63737;-59
2024/01/25 05:15:28;;;;;;;6.30;1.80;;;;;;;6.41;65.20;99283.37;104693;1268;59722;-63
2024/01/25 05:17:55;;;;;;;5.80;1.90;;;;;;;6.43;65.30;99285.84;104710;1262;59559;-60
2024/01/25 05:20:23;;;;;;;121.10;61.90;;;;;;;6.44;65.18;99279.46;105457;1267;62840;-59
2024/01/25 05:22:51;;;;;;;68.60;29.00;;;;;;;6.43;65.26;99280.94;104568;1266;61374;-60
2024/01/25 05:25:18;;;;;;;49.70;22.60;;;;;;;6.40;65.33;99287.44;104694;1263;73295;-58
2024/01/25 05:27:46;;;;;;;45.20;22.40;;;;;;;6.34;65.33;99289.02;104571;1264;60058;-58
2024/01/25 05:30:14;;;;;;;46.00;20.30;;;;;;;6.27;65.38;99285.52;104621;1266;60116;-59
2024/01/25 05:32:42;;;;;;;36.50;14.50;;;;;;;6.23;65.48;99284.50;104698;1267;64100;-59
2024/01/25 05:35:09;;;;;;;48.20;20.20;;;;;;;6.18;65.49;99286.96;104543;1268;60305;-59
2024/01/25 05:37:37;;;;;;;30.30;13.20;;;;;;;6.20;65.50;99284.23;104731;1264;64357;-60
2024/01/25 05:40:05;;;;;;;34.40;14.30;;;;;;;6.25;65.35;99286.92;104554;1267;59812;-57
2024/01/25 05:42:33;;;;;;;59.20;40.10;;;;;;;6.30;65.36;99291.42;106730;1266;59772;-60
2024/01/25 05:45:05;;;;;;;24.00;12.00;;;;;;;6.35;65.26;99284.05;104556;1264;64432;-60
2024/01/25 05:47:32;;;;;;;9.10;3.90;;;;;;;6.37;65.36;99278.83;106767;1265;60271;-60
2024/01/25 05:50:00;;;;;;;7.10;3.40;;;;;;;6.34;65.41;99279.06;104412;1269;65612;-58
2024/01/25 05:52:29;;;;;;;8.40;3.10;;;;;;;6.32;65.38;99283.36;104593;1268;60245;-62
2024/01/25 05:54:57;;;;;;;8.40;5.50;;;;;;;6.30;65.42;99284.63;106987;1266;59481;-61
2024/01/25 05:57:27;;;;;;;6.40;2.00;;;;;;;6.25;65.49;99287.95;104694;1267;63174;-60
2024/01/25 05:59:55;;;;;;;5.50;2.30;;;;;;;6.27;65.38;99287.66;105244;1266;60648;-58
2024/01/25 06:02:22;;;;;;;8.30;1.60;;;;;;;6.31;65.31;99285.73;105315;1264;64339;-60
2024/01/25 06:04:50;;;;;;;5.50;1.80;;;;;;;6.35;65.34;99284.77;104650;1264;59685;-59
2024/01/25 06:07:18;;;;;;;11.30;2.40;;;;;;;6.33;65.45;99278.46;104579;1266;59703;-60
2024/01/25 06:09:46;;;;;;;8.40;4.90;;;;;;;6.28;65.58;99279.52;104517;1266;64151;-61
2024/01/25 06:12:14;;;;;;;6.50;2.00;;;;;;;6.24;65.67;99282.30;104686;1268;61390;-62
2024/01/25 06:14:42;;;;;;;9.90;5.30;;;;;;;6.22;65.84;99279.33;106394;1263;62567;-62
2024/01/25 06:17:09;;;;;;;6.90;1.70;;;;;;;6.20;65.92;99276.52;104488;1268;59769;-60
2024/01/25 06:19:36;;;;;;;6.70;2.30;;;;;;;6.24;65.87;99277.95;104609;1264;59577;-60
2024/01/25 06:22:04;;;;;;;19.00;9.30;;;;;;;6.29;65.80;99275.61;104704;1264;65063;-64
2024/01/25 06:24:32;;;;;;;20.10;8.60;;;;;;;6.36;65.71;99272.67;104565;1263;61478;-58
2024/01/25 06:27:00;;;;;;;28.70;15.50;;;;;;;6.42;65.74;99274.92;104583;1267;62513;-59
2024/01/25 06:29:27;;;;;;;10.30;3.50;;;;;;;6.48;65.69;99272.33;104601;1269;59823;-60
2024/01/25 06:31:55;;;;;;;7.10;3.20;;;;;;;6.51;65.70;99270.17;108600;1262;57722;-63
2024/01/25 06:34:22;;;;;;;12.70;7.60;;;;;;;6.51;65.68;99271.61;108562;1264;64077;-60
2024/01/25 06:36:50;;;;;;;6.10;2.90;;;;;;;6.50;65.75;99270.77;108600;1264;60195;-61
2024/01/25 06:39:18;;;;;;;8.90;5.70;;;;;;;6.53;65.67;99269.41;106226;1265;63414;-60
2024/01/25 06:41:45;;;;;;;4.50;1.50;;;;;;;6.51;65.65;99271.96;104699;1264;59670;-60
2024/01/25 06:44:13;;;;;;;5.40;2.20;;;;;;;6.55;65.58;99273.20;104634;1261;59544;-62
2024/01/25 06:46:41;;;;;;;6.30;2.00;;;;;;;6.63;65.53;99269.07;104741;1267;64225;-63
2024/01/25 06:49:08;;;;;;;11.80;5.30;;;;;;;6.71;65.52;99267.87;104643;1269;61833;-62
2024/01/25 06:51:36;;;;;;;5.90;2.00;;;;;;;6.80;65.44;99265.77;104488;1268;63773;-61
2024/01/25 06:54:04;;;;;;;8.90;5.20;;;;;;;6.84;65.40;99264.36;104453;1267;59667;-59
2024/01/25 06:56:32;;;;;;;6.00;2.00;;;;;;;6.82;65.24;99266.60;104528;1266;59773;-60
2024/01/25 06:59:00;;;;;;;13.80;7.20;;;;;;;6.79;65.33;99271.59;104715;1266;62962;-62
2024/01/25 07:01:30;;;;;;;5.50;2.40;;;;;;;6.76;65.32;99269.75;105193;1269;61486;-60
2024/01/25 07:03:59;;;;;;;7.60;3.50;;;;;;;6.72;65.37;99272.74;104992;1266;63732;-62
2024/01/25 07:06:28;;;;;;;7.60;2.30;;;;;;;6.70;65.36;99273.58;104563;1269;59733;-59
2024/01/25 07:08:56;;;;;;;10.70;6.10;;;;;;;6.74;65.34;99272.38;105080;1264;59814;-59
2024/01/25 07:11:24;;;;;;;6.30;2.50;;;;;;;6.78;65.39;99273.09;104513;1267;62926;-61
2024/01/25 07:13:52;;;;;;;6.30;2.80;;;;;;;6.88;65.36;99268.21;105177;1267;62099;-61
2024/01/25 07:16:20;;;;;;;6.90;2.40;;;;;;;6.96;65.45;99264.99;104354;1263;63700;-59
2024/01/25 07:18:47;;;;;;;11.00;6.00;;;;;;;7.00;65.37;99263.98;104338;1267;59724;-65
2024/01/25 07:21:15;;;;;;;7.30;3.00;;;;;;;7.01;65.45;99265.42;107257;1264;59542;-63
2024/01/25 07:23:43;;;;;;;6.60;2.50;;;;;;;7.04;65.56;99265.68;104675;1264;64266;-63
2024/01/25 07:26:17;;;;;;;10.30;5.80;;;;;;;7.05;65.57;99266.29;104530;1267;60356;-60
2024/01/25 07:28:46;;;;;;;6.80;1.90;;;;;;;7.04;65.36;99264.13;107116;1264;64641;-63
2024/01/25 07:31:13;;;;;;;5.30;1.80;;;;;;;7.10;65.25;99260.16;104450;1264;59801;-61
2024/01/25 07:33:41;;;;;;;9.20;4.70;;;;;;;7.17;65.13;99261.64;104245;1263;59758;-61
2024/01/25 07:41:54;;;;;;;6.60;2.80;;;;;;;7.17;65.14;99261.89;105257;1260;61542;-60
2024/01/25 07:44:21;;;;;;;7.40;2.30;;;;;;;7.08;65.20;99261.00;104771;1264;63221;-59
2024/01/25 07:46:49;;;;;;;8.70;5.10;;;;;;;7.02;65.37;99262.20;104630;1267;59713;-60
2024/01/25 07:49:16;;;;;;;4.50;1.40;;;;;;;7.00;65.27;99259.95;104915;1260;61674;-62
2024/01/25 07:51:44;;;;;;;5.70;1.90;;;;;;;7.01;65.32;99261.92;104683;1264;64619;-60
2024/01/25 07:54:13;;;;;;;9.10;4.90;;;;;;;7.07;65.22;99260.80;104510;1264;61855;-59
2024/01/25 07:56:40;;;;;;;5.10;1.60;;;;;;;7.13;65.14;99258.90;104797;1264;73877;-59
2024/01/25 07:59:08;;;;;;;6.20;2.20;;;;;;;7.18;65.15;99254.42;104790;1263;59764;-60
2024/01/25 08:01:35;;;;;;;7.90;4.00;;;;;;;7.23;65.07;99253.19;104687;1267;62040;-60
2024/01/25 08:04:03;;;;;;;6.30;2.30;;;;;;;7.21;65.08;99250.85;104558;1263;64063;-59
2024/01/25 08:06:31;;;;;;;9.50;5.40;;;;;;;7.16;65.20;99254.75;105069;1266;61350;-63
2024/01/25 08:08:59;;;;;;;5.90;2.00;;;;;;;7.14;65.23;99256.52;104548;1267;63946;-65
2024/01/25 08:11:27;;;;;;;10.70;5.20;;;;;;;7.16;65.19;99254.09;104711;1266;59781;-63
2024/01/25 08:13:54;;;;;;;6.00;1.80;;;;;;;7.20;65.11;99255.98;104630;1266;59686;-62
2024/01/25 08:16:22;;;;;;;10.40;5.30;;;;;;;7.24;64.91;99260.51;105422;1261;63336;-62
2024/01/25 08:18:50;;;;;;;5.40;1.70;;;;;;;7.24;65.08;99258.12;104874;1257;61824;-61
2024/01/25 08:21:18;;;;;;;4.20;1.60;;;;;;;7.20;65.19;99258.13;104998;1263;62465;-61
2024/01/25 08:23:46;;;;;;;8.80;4.80;;;;;;;7.18;65.25;99260.38;104985;1261;60460;-59
2024/01/25 08:26:13;;;;;;;6.00;1.40;;;;;;;7.17;65.25;99258.17;105165;1256;60542;-59
2024/01/25 08:28:45;;;;;;;8.00;4.70;;;;;;;7.22;65.19;99256.52;104939;1262;65905;-60
2024/01/25 08:31:12;;;;;;;5.20;1.40;;;;;;;7.31;65.07;99255.81;104972;1258;71208;-59
2024/01/25 08:33:43;;;;;;;6.60;2.30;;;;;;;7.35;65.00;99253.36;104857;1264;62617;-60
2024/01/25 08:36:16;;;;;;;6.60;2.20;;;;;;;7.36;65.08;99258.38;105744;1257;60458;-59
2024/01/25 08:38:44;;;;;;;9.00;5.50;;;;;;;7.36;65.13;99257.48;105660;1258;60572;-61
2024/01/25 08:41:15;;;;;;;6.60;2.10;;;;;;;7.38;65.20;99260.13;104840;1262;67050;-58
2024/01/25 08:43:43;;;;;;;5.00;1.80;;;;;;;7.35;65.13;99263.80;108886;1256;72732;-60
2024/01/25 08:46:13;;;;;;;8.40;2.10;;;;;;;7.35;65.13;99261.02;105284;1257;64918;-58
2024/01/25 08:48:41;;;;;;;8.80;4.70;;;;;;;7.39;64.97;99261.73;104905;1264;60458;-57
2024/01/25 08:51:09;;;;;;;6.10;2.20;;;;;;;7.43;64.80;99259.30;104802;1259;60877;-61
2024/01/25 08:53:37;;;;;;;9.20;4.90;;;;;;;7.47;64.83;99261.10;104774;1264;64058;-60
2024/01/25 08:56:05;;;;;;;6.90;2.50;;;;;;;7.50;64.89;99260.83;104720;1262;60431;-61
2024/01/25 08:58:33;;;;;;;12.00;5.70;;;;;;;7.52;64.94;99264.14;108769;1258;73600;-63
2024/01/25 09:01:01;;;;;;;8.80;3.30;;;;;;;7.52;64.93;99261.58;105401;1259;61056;-63
2024/01/25 09:03:29;;;;;;;6.70;2.30;;;;;;;7.49;65.00;99258.64;107088;1260;60749;-62
2024/01/25 09:05:58;;;;;;;7.40;2.40;;;;;;;7.47;64.93;99260.02;105097;1257;66775;-60
2024/01/25 09:08:26;;;;;;;8.20;4.90;;;;;;;7.52;64.77;99259.10;107949;1258;62984;-61
2024/01/25 09:10:54;;;;;;;10.30;4.80;;;;;;;7.59;64.65;99256.36;104927;1260;73833;-60
2024/01/25 09:13:21;;;;;;;5.50;2.30;;;;;;;7.66;64.48;99255.98;104292;1262;60535;-60
2024/01/25 09:15:50;;;;;;;9.10;5.40;;;;;;;7.66;64.52;99253.73;104532;1262;61055;-59
2024/01/25 09:18:19;;;;;;;6.90;1.80;;;;;;;7.67;64.58;99255.94;108733;1257;64697;-58
2024/01/25 09:20:48;;;;;;;10.20;5.00;;;;;;;7.67;64.55;99253.48;108858;1257;62367;-61
2024/01/25 09:23:16;;;;;;;6.10;2.20;;;;;;;7.68;64.54;99252.88;108862;1260;63821;-60
2024/01/25 09:25:47;;;;;;;7.10;4.70;;;;;;;7.70;64.27;99253.35;105033;1257;60521;-60
2024/01/25 09:28:16;;;;;;;6.40;1.90;;;;;;;7.74;64.09;99248.36;105988;1262;60464;-58
2024/01/25 09:30:44;;;;;;;9.70;5.10;;;;;;;7.77;64.21;99244.95;104965;1257;76007;-60
2024/01/25 09:33:12;;;;;;;5.50;2.00;;;;;;;7.82;64.24;99243.27;105092;1262;62611;-59
2024/01/25 09:35:40;;;;;;;10.20;4.50;;;;;;;7.83;64.30;99242.98;104895;1260;74936;-58
2024/01/25 09:38:08;;;;;;;8.70;4.50;;;;;;;7.83;64.15;99242.81;105014;1259;60560;-55
2024/01/25 09:40:36;;;;;;;4.90;1.80;;;;;;;7.79;64.13;99246.27;105275;1256;60342;-57
2024/01/25 09:43:05;;;;;;;7.90;4.10;;;;;;;7.73;64.33;99240.57;105250;1257;74819;-55
2024/01/25 09:45:32;;;;;;;4.70;1.30;;;;;;;7.70;64.39;99239.42;104684;1257;63856;-57
2024/01/25 09:48:04;;;;;;;8.20;3.90;;;;;;;7.70;64.30;99235.02;105203;1258;62872;-58
2024/01/25 09:50:33;;;;;;;7.20;1.80;;;;;;;7.75;64.36;99233.41;107246;1257;60563;-58
2024/01/25 09:53:02;;;;;;;4.30;1.60;;;;;;;7.78;64.29;99230.50;106275;1262;62118;-57
2024/01/25 09:55:31;;;;;;;6.90;3.90;;;;;;;7.77;64.40;99228.70;104816;1257;76371;-59
2024/01/25 09:57:59;;;;;;;5.10;1.50;;;;;;;7.74;64.50;99228.94;105205;1261;62397;-59
2024/01/25 10:00:27;;;;;;;8.10;4.00;;;;;;;7.71;64.70;99229.90;105403;1260;64340;-57
2024/01/25 10:02:58;;;;;;;6.40;2.40;;;;;;;7.68;64.63;99226.99;105296;1259;60569;-57
2024/01/25 10:05:25;;;;;;;7.90;3.80;;;;;;;7.70;64.55;99221.23;105738;1257;60429;-59
2024/01/25 10:07:53;;;;;;;6.10;1.50;;;;;;;7.75;64.67;99225.64;105607;1259;76017;-53
2024/01/25 10:10:21;;;;;;;8.10;3.10;;;;;;;7.84;64.59;99222.11;104952;1256;72259;-57
2024/01/25 10:12:49;;;;;;;6.00;1.50;;;;;;;7.89;64.50;99222.59;106513;1258;64559;-61
2024/01/25 10:15:17;;;;;;;8.00;4.00;;;;;;;7.90;64.36;99223.84;105025;1260;62419;-57
2024/01/25 10:17:45;;;;;;;6.80;2.30;;;;;;;7.91;64.43;99222.05;104961;1257;62556;-57
2024/01/25 10:20:32;;;;;;;11.10;5.80;;;;;;;7.91;64.51;99216.10;104976;1261;63630;-61
2024/01/25 10:23:00;;;;;;;5.90;2.20;;;;;;;7.95;64.60;99211.24;105440;1256;63751;-60
2024/01/25 10:25:28;;;;;;;6.20;1.50;;;;;;;8.06;64.35;99208.38;105070;1260;63760;-61
2024/01/25 10:27:57;;;;;;;7.50;3.60;;;;;;;8.19;64.18;99206.15;105562;1262;60440;-59
2024/01/25 10:30:27;;;;;;;9.20;4.90;;;;;;;8.32;63.93;99209.19;105611;1262;62265;-60
2024/01/25 10:32:55;;;;;;;8.60;4.20;;;;;;;8.32;63.70;99213.67;105027;1262;76072;-59
2024/01/25 10:35:24;;;;;;;10.70;3.20;;;;;;;8.29;63.45;99208.70;105070;1257;73046;-61
2024/01/25 10:37:55;;;;;;;9.90;3.90;;;;;;;8.28;63.45;99211.27;105688;1258;65796;-61
2024/01/25 10:40:27;;;;;;;7.00;3.70;;;;;;;8.27;63.40;99206.64;105164;1257;63007;-62
2024/01/25 10:42:56;;;;;;;4.30;1.40;;;;;;;8.36;63.51;99204.29;105618;1259;60375;-60
2024/01/25 10:45:24;;;;;;;7.20;3.70;;;;;;;8.49;63.09;99204.40;105629;1258;65492;-62
2024/01/25 10:47:52;;;;;;;6.00;3.20;;;;;;;8.55;62.72;99198.98;104942;1258;66515;-59
2024/01/25 10:50:20;;;;;;;6.80;1.80;;;;;;;8.56;62.50;99195.02;104982;1263;74855;-58
2024/01/25 10:52:47;;;;;;;7.30;3.90;;;;;;;8.54;62.31;99198.16;104926;1258;60633;-60
2024/01/25 10:55:15;;;;;;;9.40;3.80;;;;;;;8.48;62.19;99200.06;105045;1256;60702;-61
2024/01/25 10:57:44;;;;;;;2.90;1.00;;;;;;;8.44;62.08;99200.77;104816;1257;67376;-61
2024/01/25 11:00:14;;;;;;;7.00;3.40;;;;;;;8.45;61.95;99193.94;105201;1258;71497;-58
2024/01/25 11:02:42;;;;;;;7.30;3.20;;;;;;;8.49;61.73;99195.08;106647;1253;66085;-62
2024/01/25 11:05:12;;;;;;;3.50;1.00;;;;;;;8.54;61.59;99195.13;105413;1254;60486;-59
2024/01/25 11:07:44;;;;;;;7.50;3.50;;;;;;;8.54;61.40;99192.23;105342;1253;62744;-61
2024/01/25 11:10:22;;;;;;;3.90;1.00;;;;;;;8.49;61.55;99192.18;105198;1257;76011;-59
2024/01/25 11:12:59;;;;;;;6.80;3.30;;;;;;;8.43;61.49;99193.39;104989;1257;60654;-61
2024/01/25 11:15:34;;;;;;;3.90;1.10;;;;;;;8.36;61.61;99201.34;105427;1254;73445;-61
2024/01/25 11:18:06;;;;;;;8.10;2.60;;;;;;;8.35;61.64;99199.33;105758;1253;63890;-60
2024/01/25 11:20:35;;;;;;;8.20;3.20;;;;;;;8.39;61.56;99194.02;105475;1253;61546;-59
2024/01/25 11:23:09;;;;;;;5.00;1.90;;;;;;;8.42;61.60;99192.20;105217;1253;64350;-61
2024/01/25 11:25:37;;;;;;;10.80;3.50;;;;;;;8.44;61.54;99192.39;105177;1259;62090;-60
2024/01/25 11:28:05;;;;;;;5.50;3.00;;;;;;;8.45;61.51;99191.77;104405;1257;73535;-60
2024/01/25 11:30:34;;;;;;;3.60;0.90;;;;;;;8.46;61.46;99185.75;104350;1253;60474;-65
2024/01/25 11:33:27;;;;;;;5.60;2.00;;;;;;;8.54;61.02;99194.30;108703;1253;58848;-62
2024/01/25 11:35:55;;;;;;;3.40;0.80;;;;;;;8.64;60.60;99187.84;108604;1253;65399;-61
2024/01/25 11:38:23;;;;;;;8.40;2.70;;;;;;;8.69;60.39;99185.37;107528;1252;61864;-59
2024/01/25 11:40:51;;;;;;;6.30;2.30;;;;;;;8.73;60.37;99186.84;105294;1254;66300;-60
2024/01/25 11:43:18;;;;;;;5.10;1.50;;;;;;;8.74;60.32;99191.41;104284;1254;60395;-60